TPA12 SKRG-KSAN
Flight info
| Callsign | TPA12 |
|---|---|
| Flight time | N/A |
| Altitude | 34000 |
| Route | KOTIN3A KOTIN A323 TBG UM419 ASOKU UL655 PPE V41 MXL V137 IPL DCT TOPGN TOPGN2 |
| Aircraft | A332/H-SDE3GHIJ2J3J5M1RVWXY/LB2D1 |
Departure
| Time | 2026-04-27 17:37 |
|---|---|
| Airport | Jose Maria Córdova International Airport (SKRG) |
Arrival
| Time | N/A |
|---|---|
| Airport | San Diego International Airport (KSAN) |
| Time | Latitude | Longitude | Altitude | Speed | Heading |
|---|---|---|---|---|---|
| 2026-04-27 17:09 | 6.17730 | -75.42681 | 7035 ft | 0 kts | 270° |
| 2026-04-27 17:09 | 6.17730 | -75.42680 | 7032 ft | 0 kts | 270° |
| 2026-04-27 17:11 | 6.17730 | -75.42681 | 7032 ft | 0 kts | 270° |
| 2026-04-27 17:24 | 6.17730 | -75.42676 | 7033 ft | 4 kts | 270° |
| 2026-04-27 17:25 | 6.17730 | -75.42653 | 7034 ft | 3 kts | 268° |
| 2026-04-27 17:25 | 6.17731 | -75.42638 | 7031 ft | 2 kts | 263° |
| 2026-04-27 17:25 | 6.17732 | -75.42632 | 7031 ft | 0 kts | 258° |
| 2026-04-27 17:29 | 6.17731 | -75.42634 | 7031 ft | 2 kts | 257° |
| 2026-04-27 17:29 | 6.17722 | -75.42642 | 7032 ft | 2 kts | 210° |
| 2026-04-27 17:29 | 6.17709 | -75.42642 | 7031 ft | 0 kts | 180° |
| 2026-04-27 17:30 | 6.17695 | -75.42641 | 7031 ft | 7 kts | 176° |
| 2026-04-27 17:30 | 6.17576 | -75.42580 | 7031 ft | 9 kts | 113° |
| 2026-04-27 17:30 | 6.17538 | -75.42501 | 7030 ft | 12 kts | 137° |
| 2026-04-27 17:31 | 6.17433 | -75.42489 | 7028 ft | 20 kts | 181° |
| 2026-04-27 17:31 | 6.17266 | -75.42487 | 7024 ft | 28 kts | 180° |
| 2026-04-27 17:31 | 6.17054 | -75.42488 | 7021 ft | 31 kts | 177° |
| 2026-04-27 17:31 | 6.16843 | -75.42486 | 7021 ft | 30 kts | 180° |
| 2026-04-27 17:32 | 6.16639 | -75.42483 | 7015 ft | 29 kts | 178° |
| 2026-04-27 17:32 | 6.16238 | -75.42480 | 7004 ft | 28 kts | 180° |
| 2026-04-27 17:32 | 6.16045 | -75.42476 | 6995 ft | 27 kts | 180° |
| 2026-04-27 17:33 | 6.15857 | -75.42476 | 6990 ft | 27 kts | 179° |
| 2026-04-27 17:33 | 6.15673 | -75.42474 | 6989 ft | 26 kts | 180° |
| 2026-04-27 17:33 | 6.15493 | -75.42473 | 6990 ft | 26 kts | 179° |
| 2026-04-27 17:33 | 6.15319 | -75.42470 | 6985 ft | 25 kts | 179° |
| 2026-04-27 17:34 | 6.15145 | -75.42473 | 6980 ft | 25 kts | 181° |
| 2026-04-27 17:34 | 6.14973 | -75.42470 | 6982 ft | 18 kts | 180° |
| 2026-04-27 17:34 | 6.14887 | -75.42439 | 6979 ft | 11 kts | 106° |
| 2026-04-27 17:34 | 6.14885 | -75.42366 | 6980 ft | 10 kts | 87° |
| 2026-04-27 17:35 | 6.14892 | -75.42311 | 6980 ft | 3 kts | 66° |
| 2026-04-27 17:35 | 6.14900 | -75.42303 | 6976 ft | 1 kts | 42° |
| 2026-04-27 17:35 | 6.14913 | -75.42299 | 6979 ft | 1 kts | 9° |
| 2026-04-27 17:35 | 6.14917 | -75.42299 | 6978 ft | 0 kts | 1° |
| 2026-04-27 17:36 | 6.15207 | -75.42301 | 6984 ft | 82 kts | 359° |
| 2026-04-27 17:36 | 6.16037 | -75.42308 | 6994 ft | 154 kts | 360° |
| 2026-04-27 17:36 | 6.17291 | -75.42320 | 7060 ft | 202 kts | 359° |
| 2026-04-27 17:37 | 6.18732 | -75.42368 | 7811 ft | 210 kts | 358° |
| 2026-04-27 17:37 | 6.20212 | -75.42432 | 8432 ft | 212 kts | 358° |
| 2026-04-27 17:37 | 6.21680 | -75.42504 | 8814 ft | 220 kts | 357° |
| 2026-04-27 17:37 | 6.23277 | -75.42642 | 9006 ft | 239 kts | 355° |
| 2026-04-27 17:38 | 6.24963 | -75.42786 | 9470 ft | 245 kts | 356° |
| 2026-04-27 17:38 | 6.26679 | -75.42930 | 9974 ft | 249 kts | 356° |
| 2026-04-27 17:38 | 6.28431 | -75.43057 | 10396 ft | 254 kts | 356° |
| 2026-04-27 17:38 | 6.30226 | -75.43181 | 10707 ft | 264 kts | 356° |
| 2026-04-27 17:39 | 6.32108 | -75.43110 | 10866 ft | 278 kts | 12° |
| 2026-04-27 17:39 | 6.34052 | -75.42605 | 10932 ft | 298 kts | 16° |
| 2026-04-27 17:39 | 6.36094 | -75.42208 | 11403 ft | 302 kts | 4° |
| 2026-04-27 17:39 | 6.38215 | -75.42268 | 11830 ft | 309 kts | 355° |
| 2026-04-27 17:40 | 6.39652 | -75.42401 | 12005 ft | 318 kts | 356° |
| 2026-04-27 17:40 | 6.41864 | -75.42719 | 12447 ft | 322 kts | 342° |
| 2026-04-27 17:40 | 6.43761 | -75.43840 | 13127 ft | 320 kts | 314° |
| 2026-04-27 17:40 | 6.45013 | -75.45706 | 13556 ft | 327 kts | 297° |
| 2026-04-27 17:41 | 6.46108 | -75.47732 | 14070 ft | 330 kts | 301° |
| 2026-04-27 17:41 | 6.47345 | -75.49678 | 14647 ft | 331 kts | 303° |
| 2026-04-27 17:41 | 6.48541 | -75.51667 | 15152 ft | 334 kts | 298° |
| 2026-04-27 17:41 | 6.49600 | -75.53758 | 15679 ft | 337 kts | 294° |
| 2026-04-27 17:42 | 6.50409 | -75.55978 | 16189 ft | 341 kts | 285° |
| 2026-04-27 17:42 | 6.50993 | -75.58345 | 16328 ft | 358 kts | 282° |
| 2026-04-27 17:42 | 6.51602 | -75.60842 | 16370 ft | 378 kts | 285° |
| 2026-04-27 17:42 | 6.52443 | -75.63410 | 16458 ft | 395 kts | 289° |
| 2026-04-27 17:43 | 6.53378 | -75.66078 | 16577 ft | 411 kts | 287° |
| 2026-04-27 17:43 | 6.54165 | -75.68841 | 17316 ft | 410 kts | 284° |
| 2026-04-27 17:43 | 6.54930 | -75.71613 | 17909 ft | 414 kts | 286° |
| 2026-04-27 17:43 | 6.55844 | -75.74383 | 18482 ft | 419 kts | 289° |
| 2026-04-27 17:44 | 6.56776 | -75.77170 | 19068 ft | 422 kts | 287° |
| 2026-04-27 17:44 | 6.57593 | -75.80017 | 19628 ft | 426 kts | 285° |
| 2026-04-27 17:44 | 6.58414 | -75.82890 | 20177 ft | 430 kts | 286° |
| 2026-04-27 17:44 | 6.59348 | -75.85756 | 20731 ft | 433 kts | 288° |
| 2026-04-27 17:45 | 6.60288 | -75.88651 | 21253 ft | 437 kts | 286° |
| 2026-04-27 17:45 | 6.61144 | -75.91595 | 21797 ft | 440 kts | 285° |
| 2026-04-27 17:45 | 6.62013 | -75.94564 | 22301 ft | 444 kts | 286° |
| 2026-04-27 17:45 | 6.62967 | -75.97530 | 22826 ft | 448 kts | 287° |
| 2026-04-27 17:46 | 6.63921 | -76.00521 | 23347 ft | 451 kts | 286° |
| 2026-04-27 17:46 | 6.64815 | -76.03557 | 23776 ft | 455 kts | 285° |
| 2026-04-27 17:46 | 6.65722 | -76.06617 | 24191 ft | 458 kts | 286° |
| 2026-04-27 17:46 | 6.66695 | -76.09680 | 24625 ft | 461 kts | 287° |
| 2026-04-27 17:47 | 6.67669 | -76.12765 | 25015 ft | 465 kts | 286° |
| 2026-04-27 17:47 | 6.68286 | -76.14829 | 25269 ft | 467 kts | 285° |
| 2026-04-27 17:47 | 6.69535 | -76.19032 | 25833 ft | 470 kts | 286° |
| 2026-04-27 17:47 | 6.70525 | -76.22178 | 26218 ft | 474 kts | 286° |
| 2026-04-27 17:48 | 6.71520 | -76.25351 | 26606 ft | 477 kts | 285° |
| 2026-04-27 17:48 | 6.72478 | -76.28556 | 27000 ft | 480 kts | 285° |
| 2026-04-27 17:48 | 6.73444 | -76.31777 | 27392 ft | 483 kts | 285° |
| 2026-04-27 17:48 | 6.74455 | -76.35009 | 27767 ft | 486 kts | 286° |
| 2026-04-27 17:49 | 6.75467 | -76.38264 | 28164 ft | 489 kts | 285° |
| 2026-04-27 17:49 | 6.76451 | -76.41547 | 28529 ft | 492 kts | 285° |
| 2026-04-27 17:49 | 6.77451 | -76.44854 | 28905 ft | 496 kts | 285° |
| 2026-04-27 17:49 | 6.78485 | -76.48169 | 29290 ft | 498 kts | 285° |
| 2026-04-27 17:50 | 6.79514 | -76.51511 | 29644 ft | 502 kts | 285° |
| 2026-04-27 17:50 | 6.81547 | -76.58240 | 30567 ft | 501 kts | 285° |
| 2026-04-27 17:50 | 6.82572 | -76.61531 | 31092 ft | 498 kts | 285° |
| 2026-04-27 17:51 | 6.83602 | -76.64899 | 31628 ft | 496 kts | 284° |
| 2026-04-27 17:51 | 6.84685 | -76.68184 | 32095 ft | 496 kts | 291° |
| 2026-04-27 17:51 | 6.86487 | -76.71144 | 32573 ft | 497 kts | 304° |
| 2026-04-27 17:51 | 6.88516 | -76.73899 | 32976 ft | 497 kts | 303° |
| 2026-04-27 17:52 | 6.90430 | -76.76784 | 33453 ft | 494 kts | 300° |
| 2026-04-27 17:52 | 6.92296 | -76.79683 | 33914 ft | 494 kts | 302° |
| 2026-04-27 17:52 | 6.96429 | -76.85371 | 33892 ft | 512 kts | 303° |
| 2026-04-27 17:53 | 7.00387 | -76.91386 | 33889 ft | 517 kts | 301° |
| 2026-04-27 17:53 | 7.04604 | -76.97256 | 33888 ft | 517 kts | 303° |
| 2026-04-27 17:54 | 7.08594 | -77.03272 | 33887 ft | 517 kts | 301° |
| 2026-04-27 17:54 | 7.12761 | -77.09118 | 33888 ft | 508 kts | 303° |
| 2026-04-27 17:55 | 7.16646 | -77.14946 | 33892 ft | 497 kts | 301° |
| 2026-04-27 17:55 | 7.20659 | -77.20609 | 33891 ft | 496 kts | 303° |
| 2026-04-27 17:56 | 7.24505 | -77.26356 | 33890 ft | 495 kts | 301° |
| 2026-04-27 17:56 | 7.28493 | -77.32008 | 33898 ft | 495 kts | 303° |
| 2026-04-27 17:57 | 7.32348 | -77.37751 | 33860 ft | 494 kts | 301° |
| 2026-04-27 17:57 | 7.36316 | -77.43403 | 33895 ft | 494 kts | 303° |
| 2026-04-27 17:58 | 7.40170 | -77.49127 | 33889 ft | 493 kts | 301° |
| 2026-04-27 17:58 | 7.44125 | -77.54778 | 33902 ft | 494 kts | 302° |
| 2026-04-27 17:59 | 7.47978 | -77.60493 | 33906 ft | 492 kts | 301° |
| 2026-04-27 17:59 | 7.51921 | -77.66143 | 33902 ft | 493 kts | 302° |
| 2026-04-27 18:00 | 7.55745 | -77.71808 | 33905 ft | 492 kts | 301° |
| 2026-04-27 18:00 | 7.59640 | -77.77482 | 33907 ft | 491 kts | 301° |
| 2026-04-27 18:01 | 7.63362 | -77.83235 | 33900 ft | 490 kts | 301° |
| 2026-04-27 18:01 | 7.67225 | -77.88894 | 33909 ft | 490 kts | 301° |
| 2026-04-27 18:02 | 7.70951 | -77.94632 | 33902 ft | 489 kts | 301° |
| 2026-04-27 18:02 | 7.74801 | -78.00298 | 33902 ft | 489 kts | 301° |
| 2026-04-27 18:03 | 7.78533 | -78.06029 | 33906 ft | 489 kts | 301° |
| 2026-04-27 18:03 | 7.82373 | -78.11699 | 33888 ft | 489 kts | 301° |
| 2026-04-27 18:04 | 7.86113 | -78.17436 | 33881 ft | 490 kts | 301° |
| 2026-04-27 18:04 | 7.89948 | -78.23112 | 33883 ft | 489 kts | 301° |
| 2026-04-27 18:05 | 7.93688 | -78.28843 | 33889 ft | 489 kts | 301° |
| 2026-04-27 18:05 | 7.97511 | -78.34519 | 33885 ft | 489 kts | 301° |
| 2026-04-27 18:06 | 8.01260 | -78.40252 | 33882 ft | 490 kts | 301° |
| 2026-04-27 18:06 | 8.05081 | -78.45943 | 33877 ft | 490 kts | 301° |
| 2026-04-27 18:07 | 8.08832 | -78.51671 | 33882 ft | 490 kts | 301° |
| 2026-04-27 18:07 | 8.12649 | -78.57375 | 33885 ft | 490 kts | 300° |
| 2026-04-27 18:08 | 8.16409 | -78.63062 | 33882 ft | 491 kts | 302° |
| 2026-04-27 18:08 | 8.20273 | -78.68738 | 33882 ft | 490 kts | 300° |
| 2026-04-27 18:09 | 8.24065 | -78.74462 | 33883 ft | 491 kts | 301° |
| 2026-04-27 18:09 | 8.27926 | -78.80157 | 33886 ft | 491 kts | 300° |
| 2026-04-27 18:10 | 8.31733 | -78.85890 | 33883 ft | 492 kts | 301° |
| 2026-04-27 18:10 | 8.35590 | -78.91600 | 33886 ft | 492 kts | 300° |
| 2026-04-27 18:11 | 8.39406 | -78.97335 | 33884 ft | 493 kts | 301° |
| 2026-04-27 18:11 | 8.43257 | -79.03056 | 33882 ft | 492 kts | 300° |
| 2026-04-27 18:12 | 8.47082 | -79.08794 | 33880 ft | 493 kts | 301° |
| 2026-04-27 18:12 | 8.50924 | -79.14523 | 33891 ft | 492 kts | 300° |
| 2026-04-27 18:13 | 8.54757 | -79.20260 | 33888 ft | 493 kts | 301° |
| 2026-04-27 18:13 | 8.58586 | -79.25993 | 33892 ft | 492 kts | 300° |
| 2026-04-27 18:14 | 8.62420 | -79.31719 | 33883 ft | 492 kts | 301° |
| 2026-04-27 18:14 | 8.66235 | -79.37451 | 33890 ft | 491 kts | 300° |
| 2026-04-27 18:15 | 8.70064 | -79.43161 | 33886 ft | 491 kts | 301° |
| 2026-04-27 18:15 | 8.73866 | -79.48891 | 33888 ft | 491 kts | 300° |
| 2026-04-27 18:16 | 8.77699 | -79.54599 | 33891 ft | 491 kts | 301° |
| 2026-04-27 18:16 | 8.81311 | -79.60383 | 33885 ft | 490 kts | 299° |
| 2026-04-27 18:17 | 8.85099 | -79.66171 | 33889 ft | 490 kts | 300° |
| 2026-04-27 18:17 | 8.88665 | -79.72034 | 33881 ft | 490 kts | 299° |
| 2026-04-27 18:18 | 8.92406 | -79.77796 | 33887 ft | 490 kts | 300° |
| 2026-04-27 18:18 | 8.95956 | -79.83610 | 33882 ft | 490 kts | 299° |
| 2026-04-27 18:19 | 8.99686 | -79.89387 | 33888 ft | 490 kts | 300° |
| 2026-04-27 18:19 | 9.03272 | -79.95238 | 33896 ft | 489 kts | 299° |
| 2026-04-27 18:20 | 9.06985 | -80.01011 | 33892 ft | 490 kts | 300° |
| 2026-04-27 18:20 | 9.10576 | -80.06862 | 33891 ft | 489 kts | 299° |
| 2026-04-27 18:21 | 9.14278 | -80.12641 | 33895 ft | 489 kts | 300° |
| 2026-04-27 18:21 | 9.17872 | -80.18482 | 33880 ft | 489 kts | 299° |
| 2026-04-27 18:22 | 9.21564 | -80.24265 | 33903 ft | 489 kts | 299° |
| 2026-04-27 18:22 | 9.25159 | -80.30102 | 33904 ft | 489 kts | 299° |
| 2026-04-27 18:23 | 9.28846 | -80.35892 | 33902 ft | 489 kts | 299° |
| 2026-04-27 18:23 | 9.32443 | -80.41728 | 33890 ft | 489 kts | 299° |
| 2026-04-27 18:24 | 9.36121 | -80.47518 | 33908 ft | 488 kts | 299° |
| 2026-04-27 18:24 | 9.39716 | -80.53348 | 33895 ft | 488 kts | 299° |
| 2026-04-27 18:25 | 9.43383 | -80.59136 | 33895 ft | 488 kts | 299° |
| 2026-04-27 18:25 | 9.46979 | -80.64962 | 33898 ft | 488 kts | 300° |
| 2026-04-27 18:26 | 9.50615 | -80.70715 | 33900 ft | 488 kts | 299° |
| 2026-04-27 18:26 | 9.54211 | -80.76538 | 33899 ft | 488 kts | 300° |
| 2026-04-27 18:27 | 9.57862 | -80.82332 | 33899 ft | 487 kts | 299° |
| 2026-04-27 18:27 | 9.61463 | -80.88144 | 33893 ft | 487 kts | 300° |
| 2026-04-27 18:28 | 9.64539 | -80.92972 | 33898 ft | 487 kts | 299° |
| 2026-04-27 18:28 | 9.68130 | -80.98780 | 33890 ft | 486 kts | 300° |
| 2026-04-27 18:29 | 9.71787 | -81.04543 | 33890 ft | 485 kts | 299° |
| 2026-04-27 18:29 | 9.75372 | -81.10334 | 33892 ft | 485 kts | 300° |
| 2026-04-27 18:30 | 9.79010 | -81.16085 | 33900 ft | 484 kts | 299° |
| 2026-04-27 18:30 | 9.82591 | -81.21860 | 33900 ft | 484 kts | 300° |
| 2026-04-27 18:31 | 9.86217 | -81.27613 | 33898 ft | 483 kts | 299° |
| 2026-04-27 18:31 | 9.89799 | -81.33379 | 33898 ft | 483 kts | 300° |
| 2026-04-27 18:32 | 9.93381 | -81.39084 | 33895 ft | 482 kts | 299° |
| 2026-04-27 18:32 | 9.96961 | -81.44835 | 33897 ft | 482 kts | 300° |
| 2026-04-27 18:33 | 10.00551 | -81.50577 | 33901 ft | 482 kts | 298° |
| 2026-04-27 18:33 | 10.04137 | -81.56326 | 33897 ft | 482 kts | 299° |
| 2026-04-27 18:34 | 10.07716 | -81.62073 | 33894 ft | 482 kts | 298° |
| 2026-04-27 18:34 | 10.11306 | -81.67816 | 33899 ft | 482 kts | 299° |
| 2026-04-27 18:35 | 10.14875 | -81.73570 | 33899 ft | 481 kts | 298° |
| 2026-04-27 18:35 | 10.18470 | -81.79312 | 33905 ft | 482 kts | 299° |
| 2026-04-27 18:36 | 10.22032 | -81.85074 | 33900 ft | 481 kts | 298° |
| 2026-04-27 18:36 | 10.25624 | -81.90808 | 33901 ft | 481 kts | 299° |
| 2026-04-27 18:37 | 10.29177 | -81.96566 | 33900 ft | 481 kts | 298° |
| 2026-04-27 18:37 | 10.32769 | -82.02303 | 33903 ft | 481 kts | 298° |
| 2026-04-27 18:38 | 10.36317 | -82.08058 | 33899 ft | 481 kts | 298° |
| 2026-04-27 18:38 | 10.39904 | -82.13798 | 33899 ft | 481 kts | 298° |
| 2026-04-27 18:39 | 10.43461 | -82.19565 | 33895 ft | 482 kts | 299° |
| 2026-04-27 18:39 | 10.47048 | -82.25320 | 33871 ft | 482 kts | 298° |
| 2026-04-27 18:40 | 10.50605 | -82.31081 | 33960 ft | 481 kts | 299° |
| 2026-04-27 18:40 | 10.54192 | -82.36861 | 33932 ft | 483 kts | 298° |
| 2026-04-27 18:41 | 10.57767 | -82.42637 | 33934 ft | 483 kts | 299° |
| 2026-04-27 18:41 | 10.61344 | -82.48423 | 33948 ft | 483 kts | 298° |
| 2026-04-27 18:42 | 10.64320 | -82.53231 | 33936 ft | 484 kts | 299° |
| 2026-04-27 18:42 | 10.68499 | -82.60003 | 33935 ft | 484 kts | 298° |
| 2026-04-27 18:43 | 10.72096 | -82.65787 | 33942 ft | 484 kts | 299° |
| 2026-04-27 18:43 | 10.75767 | -82.71525 | 33941 ft | 484 kts | 299° |
| 2026-04-27 18:44 | 10.79388 | -82.77287 | 33941 ft | 484 kts | 299° |
| 2026-04-27 18:44 | 10.83028 | -82.82990 | 33944 ft | 484 kts | 299° |
| 2026-04-27 18:45 | 10.86645 | -82.88752 | 33937 ft | 484 kts | 299° |
| 2026-04-27 18:45 | 10.90307 | -82.94500 | 33942 ft | 484 kts | 299° |
| 2026-04-27 18:46 | 10.93928 | -83.00267 | 33943 ft | 484 kts | 300° |
| 2026-04-27 18:46 | 10.97583 | -83.06018 | 33943 ft | 484 kts | 299° |
| 2026-04-27 18:47 | 11.01206 | -83.11786 | 33943 ft | 483 kts | 300° |
| 2026-04-27 18:47 | 11.04850 | -83.17536 | 33949 ft | 483 kts | 299° |
| 2026-04-27 18:48 | 11.08478 | -83.23306 | 33949 ft | 484 kts | 300° |
| 2026-04-27 18:48 | 11.12118 | -83.29072 | 33944 ft | 484 kts | 299° |
| 2026-04-27 18:49 | 11.15751 | -83.34838 | 33948 ft | 484 kts | 300° |
| 2026-04-27 18:49 | 11.19420 | -83.40577 | 33949 ft | 484 kts | 300° |
| 2026-04-27 18:50 | 11.23093 | -83.46318 | 33949 ft | 484 kts | 300° |
| 2026-04-27 18:50 | 11.26761 | -83.52059 | 33946 ft | 483 kts | 300° |
| 2026-04-27 18:51 | 11.30424 | -83.57801 | 33950 ft | 483 kts | 300° |
| 2026-04-27 18:51 | 11.34093 | -83.63538 | 33950 ft | 483 kts | 300° |
| 2026-04-27 18:52 | 11.37743 | -83.69278 | 33945 ft | 483 kts | 300° |
| 2026-04-27 18:53 | 11.43235 | -83.77886 | 33949 ft | 483 kts | 300° |
| 2026-04-27 18:53 | 11.46897 | -83.83628 | 33953 ft | 483 kts | 301° |
| 2026-04-27 18:54 | 11.50545 | -83.89373 | 33949 ft | 482 kts | 300° |
| 2026-04-27 18:54 | 11.54205 | -83.95106 | 33948 ft | 482 kts | 301° |
| 2026-04-27 18:55 | 11.57845 | -84.00855 | 33946 ft | 482 kts | 301° |
| 2026-04-27 18:55 | 11.61504 | -84.06584 | 33946 ft | 482 kts | 301° |
| 2026-04-27 18:56 | 11.65130 | -84.12326 | 33943 ft | 481 kts | 301° |
| 2026-04-27 18:56 | 11.68789 | -84.18054 | 33937 ft | 482 kts | 301° |
| 2026-04-27 18:57 | 11.72413 | -84.23801 | 33940 ft | 481 kts | 301° |
| 2026-04-27 18:57 | 11.76066 | -84.29531 | 33940 ft | 482 kts | 301° |
| 2026-04-27 18:58 | 11.79688 | -84.35276 | 33939 ft | 481 kts | 301° |
| 2026-04-27 18:58 | 11.83309 | -84.40966 | 33940 ft | 481 kts | 300° |
| 2026-04-27 18:59 | 11.86928 | -84.46708 | 33940 ft | 481 kts | 301° |
| 2026-04-27 18:59 | 11.90568 | -84.52443 | 33936 ft | 481 kts | 300° |
| 2026-04-27 19:00 | 11.94189 | -84.58185 | 33929 ft | 481 kts | 301° |
| 2026-04-27 19:00 | 11.97816 | -84.63917 | 33933 ft | 480 kts | 300° |
| 2026-04-27 19:01 | 12.01434 | -84.69652 | 33931 ft | 481 kts | 301° |
| 2026-04-27 19:01 | 12.05060 | -84.75395 | 33936 ft | 481 kts | 300° |
| 2026-04-27 19:02 | 12.08683 | -84.81140 | 33933 ft | 481 kts | 301° |
| 2026-04-27 19:02 | 12.12303 | -84.86885 | 33925 ft | 481 kts | 300° |
| 2026-04-27 19:03 | 12.15924 | -84.92630 | 33935 ft | 481 kts | 301° |
| 2026-04-27 19:03 | 12.19542 | -84.98381 | 33932 ft | 481 kts | 300° |
| 2026-04-27 19:04 | 12.23165 | -85.04131 | 33929 ft | 481 kts | 300° |
| 2026-04-27 19:04 | 12.26778 | -85.09888 | 33926 ft | 481 kts | 300° |
| 2026-04-27 19:05 | 12.30399 | -85.15637 | 33924 ft | 480 kts | 300° |
| 2026-04-27 19:05 | 12.34003 | -85.21389 | 33927 ft | 480 kts | 300° |
| 2026-04-27 19:06 | 12.37612 | -85.27125 | 33923 ft | 479 kts | 300° |
| 2026-04-27 19:06 | 12.41209 | -85.32872 | 33929 ft | 480 kts | 300° |
| 2026-04-27 19:07 | 12.44809 | -85.38604 | 33928 ft | 479 kts | 300° |
| 2026-04-27 19:07 | 12.48384 | -85.44317 | 33923 ft | 479 kts | 300° |
| 2026-04-27 19:08 | 12.51984 | -85.50062 | 33925 ft | 480 kts | 300° |
| 2026-04-27 19:08 | 12.55580 | -85.55814 | 33925 ft | 480 kts | 300° |
| 2026-04-27 19:09 | 12.59176 | -85.61563 | 33930 ft | 480 kts | 300° |
| 2026-04-27 19:09 | 12.62774 | -85.67315 | 33935 ft | 479 kts | 300° |
| 2026-04-27 19:10 | 12.66359 | -85.73067 | 33933 ft | 479 kts | 300° |
| 2026-04-27 19:10 | 12.69954 | -85.78812 | 33942 ft | 479 kts | 300° |
| 2026-04-27 19:11 | 12.73535 | -85.84564 | 33943 ft | 479 kts | 300° |
| 2026-04-27 19:11 | 12.77121 | -85.90305 | 33948 ft | 479 kts | 300° |
| 2026-04-27 19:12 | 12.80696 | -85.96053 | 33952 ft | 479 kts | 300° |
| 2026-04-27 19:12 | 12.84278 | -86.01798 | 33959 ft | 478 kts | 300° |
| 2026-04-27 19:13 | 12.87851 | -86.07547 | 33956 ft | 478 kts | 300° |
| 2026-04-27 19:13 | 12.91399 | -86.13250 | 33957 ft | 477 kts | 300° |
| 2026-04-27 19:14 | 12.94965 | -86.18989 | 33962 ft | 477 kts | 300° |
| 2026-04-27 19:14 | 12.98524 | -86.24717 | 33957 ft | 477 kts | 300° |
| 2026-04-27 19:15 | 13.02081 | -86.30456 | 33958 ft | 477 kts | 300° |
| 2026-04-27 19:15 | 13.05072 | -86.35268 | 33953 ft | 477 kts | 300° |
| 2026-04-27 19:16 | 13.08604 | -86.40978 | 33961 ft | 477 kts | 300° |
| 2026-04-27 19:16 | 13.12173 | -86.46724 | 33951 ft | 478 kts | 301° |
| 2026-04-27 19:17 | 13.15727 | -86.52479 | 33952 ft | 478 kts | 301° |
| 2026-04-27 19:17 | 13.19293 | -86.58231 | 33954 ft | 477 kts | 301° |
| 2026-04-27 19:18 | 13.22845 | -86.63984 | 33945 ft | 477 kts | 301° |
| 2026-04-27 19:18 | 13.26405 | -86.69741 | 33945 ft | 478 kts | 301° |
| 2026-04-27 19:19 | 13.29955 | -86.75493 | 33953 ft | 477 kts | 301° |
| 2026-04-27 19:19 | 13.33505 | -86.81242 | 33951 ft | 476 kts | 301° |
| 2026-04-27 19:20 | 13.37048 | -86.86990 | 33945 ft | 476 kts | 301° |
| 2026-04-27 19:20 | 13.40592 | -86.92737 | 33948 ft | 476 kts | 301° |
| 2026-04-27 19:21 | 13.44128 | -86.98484 | 33944 ft | 476 kts | 301° |
| 2026-04-27 19:21 | 13.47669 | -87.04230 | 33954 ft | 476 kts | 301° |
| 2026-04-27 19:22 | 13.51202 | -87.09981 | 33964 ft | 476 kts | 301° |
| 2026-04-27 19:22 | 13.54738 | -87.15731 | 33969 ft | 475 kts | 302° |
| 2026-04-27 19:23 | 13.58267 | -87.21477 | 33974 ft | 475 kts | 302° |
| 2026-04-27 19:23 | 13.61788 | -87.27214 | 33984 ft | 474 kts | 302° |
| 2026-04-27 19:24 | 13.65307 | -87.32949 | 33989 ft | 474 kts | 302° |
| 2026-04-27 19:24 | 13.68818 | -87.38678 | 33985 ft | 474 kts | 302° |
| 2026-04-27 19:25 | 13.72329 | -87.44409 | 33981 ft | 473 kts | 302° |
| 2026-04-27 19:25 | 13.75836 | -87.50137 | 33990 ft | 473 kts | 302° |
| 2026-04-27 19:26 | 13.79343 | -87.55874 | 33983 ft | 474 kts | 303° |
| 2026-04-27 19:26 | 13.82856 | -87.61615 | 33978 ft | 474 kts | 303° |
| 2026-04-27 19:27 | 13.86364 | -87.67359 | 33972 ft | 474 kts | 303° |
| 2026-04-27 19:27 | 13.89868 | -87.73101 | 33974 ft | 474 kts | 303° |
| 2026-04-27 19:28 | 13.93349 | -87.78804 | 33971 ft | 474 kts | 303° |
| 2026-04-27 19:28 | 13.96851 | -87.84550 | 33977 ft | 474 kts | 303° |
| 2026-04-27 19:29 | 14.00352 | -87.90295 | 33982 ft | 474 kts | 303° |
| 2026-04-27 19:29 | 14.03849 | -87.96040 | 33990 ft | 473 kts | 303° |
| 2026-04-27 19:30 | 14.07345 | -88.01784 | 33996 ft | 474 kts | 303° |
| 2026-04-27 19:30 | 14.10840 | -88.07535 | 34012 ft | 473 kts | 303° |
| 2026-04-27 19:31 | 14.14332 | -88.13281 | 34022 ft | 473 kts | 303° |
| 2026-04-27 19:31 | 14.17822 | -88.19031 | 34033 ft | 473 kts | 303° |
| 2026-04-27 19:32 | 14.21311 | -88.24779 | 34033 ft | 473 kts | 303° |
| 2026-04-27 19:32 | 14.24801 | -88.30536 | 34041 ft | 473 kts | 303° |
| 2026-04-27 19:33 | 14.28285 | -88.36287 | 34050 ft | 473 kts | 303° |
| 2026-04-27 19:33 | 14.31770 | -88.42047 | 34061 ft | 473 kts | 303° |
| 2026-04-27 19:34 | 14.35257 | -88.47805 | 34065 ft | 474 kts | 303° |
| 2026-04-27 19:34 | 14.38743 | -88.53575 | 34073 ft | 474 kts | 303° |
| 2026-04-27 19:35 | 14.42227 | -88.59341 | 34083 ft | 474 kts | 303° |
| 2026-04-27 19:35 | 14.45711 | -88.65111 | 34096 ft | 474 kts | 303° |
| 2026-04-27 19:36 | 14.49195 | -88.70883 | 34101 ft | 475 kts | 303° |
| 2026-04-27 19:36 | 14.52645 | -88.76615 | 34107 ft | 472 kts | 303° |
| 2026-04-27 19:37 | 14.56119 | -88.82370 | 34116 ft | 472 kts | 303° |
| 2026-04-27 19:37 | 14.59580 | -88.88132 | 34124 ft | 472 kts | 303° |
| 2026-04-27 19:38 | 14.63052 | -88.93891 | 34126 ft | 472 kts | 303° |
| 2026-04-27 19:38 | 14.66510 | -88.99655 | 34129 ft | 473 kts | 303° |
| 2026-04-27 19:39 | 14.69982 | -89.05424 | 34121 ft | 473 kts | 303° |
| 2026-04-27 19:39 | 14.73441 | -89.11198 | 34119 ft | 472 kts | 303° |
| 2026-04-27 19:40 | 14.76903 | -89.16961 | 34113 ft | 472 kts | 303° |
| 2026-04-27 19:40 | 14.80356 | -89.22727 | 34103 ft | 472 kts | 303° |
| 2026-04-27 19:41 | 14.83813 | -89.28498 | 34096 ft | 472 kts | 303° |
| 2026-04-27 19:41 | 14.87270 | -89.34274 | 34084 ft | 473 kts | 303° |
| 2026-04-27 19:42 | 14.90706 | -89.40023 | 34078 ft | 473 kts | 303° |
| 2026-04-27 19:42 | 14.94163 | -89.45800 | 34068 ft | 472 kts | 303° |
| 2026-04-27 19:43 | 14.97612 | -89.51584 | 34061 ft | 472 kts | 303° |
| 2026-04-27 19:43 | 15.01060 | -89.57357 | 34051 ft | 471 kts | 303° |
| 2026-04-27 19:44 | 15.04500 | -89.63128 | 34053 ft | 471 kts | 303° |
| 2026-04-27 19:44 | 15.07937 | -89.68897 | 34044 ft | 472 kts | 303° |
| 2026-04-27 19:45 | 15.11381 | -89.74682 | 34055 ft | 472 kts | 303° |
| 2026-04-27 19:45 | 15.14826 | -89.80469 | 34057 ft | 473 kts | 303° |
| 2026-04-27 19:46 | 15.18271 | -89.86270 | 34067 ft | 473 kts | 303° |
| 2026-04-27 19:46 | 15.21718 | -89.92068 | 34070 ft | 473 kts | 303° |
| 2026-04-27 19:47 | 15.25158 | -89.97866 | 34081 ft | 473 kts | 303° |
| 2026-04-27 19:47 | 15.28596 | -90.03664 | 34100 ft | 472 kts | 303° |
| 2026-04-27 19:48 | 15.32035 | -90.09460 | 34103 ft | 472 kts | 303° |
| 2026-04-27 19:48 | 15.35460 | -90.15256 | 34114 ft | 472 kts | 303° |
| 2026-04-27 19:49 | 15.38895 | -90.21047 | 34112 ft | 471 kts | 303° |
| 2026-04-27 19:49 | 15.42316 | -90.26845 | 34104 ft | 471 kts | 303° |
| 2026-04-27 19:50 | 15.45719 | -90.32593 | 34098 ft | 470 kts | 303° |
| 2026-04-27 19:50 | 15.49131 | -90.38380 | 34075 ft | 470 kts | 303° |
| 2026-04-27 19:51 | 15.52539 | -90.44148 | 34056 ft | 469 kts | 303° |
| 2026-04-27 19:51 | 15.55930 | -90.49911 | 34034 ft | 468 kts | 303° |
| 2026-04-27 19:52 | 15.59338 | -90.55686 | 34015 ft | 470 kts | 304° |
| 2026-04-27 19:52 | 15.62739 | -90.61477 | 33993 ft | 470 kts | 303° |
| 2026-04-27 19:53 | 15.67839 | -90.70143 | 33966 ft | 469 kts | 304° |
| 2026-04-27 19:53 | 15.71233 | -90.75921 | 33955 ft | 469 kts | 304° |
| 2026-04-27 19:54 | 15.74623 | -90.81696 | 33941 ft | 468 kts | 304° |
| 2026-04-27 19:54 | 15.78007 | -90.87463 | 33940 ft | 468 kts | 304° |
| 2026-04-27 19:55 | 15.81387 | -90.93236 | 33937 ft | 467 kts | 304° |
| 2026-04-27 19:55 | 15.84765 | -90.98998 | 33939 ft | 467 kts | 304° |
| 2026-04-27 19:56 | 15.88134 | -91.04765 | 33942 ft | 467 kts | 304° |
| 2026-04-27 19:56 | 15.91508 | -91.10521 | 33941 ft | 466 kts | 304° |
| 2026-04-27 19:57 | 15.94863 | -91.16283 | 33940 ft | 466 kts | 304° |
| 2026-04-27 19:57 | 15.98228 | -91.22030 | 33946 ft | 465 kts | 304° |
| 2026-04-27 19:58 | 16.01576 | -91.27781 | 33941 ft | 465 kts | 304° |
| 2026-04-27 19:58 | 16.04931 | -91.33528 | 33940 ft | 465 kts | 304° |
| 2026-04-27 19:59 | 16.08384 | -91.39191 | 33929 ft | 460 kts | 311° |
| 2026-04-27 19:59 | 16.12550 | -91.44253 | 33933 ft | 462 kts | 312° |
| 2026-04-27 20:00 | 16.16563 | -91.49466 | 33930 ft | 461 kts | 313° |
| 2026-04-27 20:00 | 16.20724 | -91.54522 | 33927 ft | 460 kts | 311° |
| 2026-04-27 20:01 | 16.24740 | -91.59707 | 33928 ft | 460 kts | 313° |
| 2026-04-27 20:01 | 16.28848 | -91.64745 | 33934 ft | 460 kts | 311° |
| 2026-04-27 20:02 | 16.32879 | -91.69925 | 33933 ft | 460 kts | 312° |
| 2026-04-27 20:02 | 16.37002 | -91.75013 | 33940 ft | 460 kts | 311° |
| 2026-04-27 20:03 | 16.41034 | -91.80180 | 33941 ft | 459 kts | 312° |
| 2026-04-27 20:03 | 16.44482 | -91.84442 | 33942 ft | 459 kts | 312° |
| 2026-04-27 20:04 | 16.48514 | -91.89603 | 33945 ft | 459 kts | 312° |
| 2026-04-27 20:04 | 16.52610 | -91.94704 | 33946 ft | 459 kts | 312° |
| 2026-04-27 20:05 | 16.56643 | -91.99857 | 33955 ft | 458 kts | 312° |
| 2026-04-27 20:05 | 16.60691 | -92.04918 | 33972 ft | 457 kts | 311° |
| 2026-04-27 20:06 | 16.64717 | -92.10056 | 33960 ft | 457 kts | 312° |
| 2026-04-27 20:06 | 16.68779 | -92.15159 | 33974 ft | 457 kts | 311° |
| 2026-04-27 20:07 | 16.72812 | -92.20297 | 33967 ft | 457 kts | 312° |
| 2026-04-27 20:07 | 16.76865 | -92.25410 | 33965 ft | 457 kts | 311° |
| 2026-04-27 20:08 | 16.80897 | -92.30541 | 33948 ft | 457 kts | 312° |
| 2026-04-27 20:08 | 16.84934 | -92.35655 | 33947 ft | 456 kts | 311° |
| 2026-04-27 20:09 | 16.88955 | -92.40768 | 33938 ft | 455 kts | 311° |
| 2026-04-27 20:09 | 16.92980 | -92.45882 | 33934 ft | 456 kts | 311° |
| 2026-04-27 20:10 | 16.97000 | -92.50995 | 33916 ft | 455 kts | 311° |
| 2026-04-27 20:10 | 17.01017 | -92.56112 | 33911 ft | 456 kts | 311° |
| 2026-04-27 20:11 | 17.05040 | -92.61234 | 33902 ft | 456 kts | 311° |
| 2026-04-27 20:11 | 17.09059 | -92.66362 | 33900 ft | 456 kts | 311° |
| 2026-04-27 20:12 | 17.13077 | -92.71486 | 33899 ft | 456 kts | 311° |
| 2026-04-27 20:12 | 17.17091 | -92.76615 | 33893 ft | 456 kts | 311° |
| 2026-04-27 20:13 | 17.21106 | -92.81741 | 33884 ft | 455 kts | 311° |
| 2026-04-27 20:13 | 17.25114 | -92.86871 | 33877 ft | 455 kts | 311° |
| 2026-04-27 20:14 | 17.29124 | -92.91996 | 33867 ft | 455 kts | 311° |
| 2026-04-27 20:14 | 17.33119 | -92.97122 | 33856 ft | 454 kts | 310° |
| 2026-04-27 20:15 | 17.37116 | -93.02236 | 33858 ft | 455 kts | 310° |
| 2026-04-27 20:15 | 17.41114 | -93.07373 | 33859 ft | 455 kts | 310° |
| 2026-04-27 20:16 | 17.45116 | -93.12503 | 33852 ft | 455 kts | 310° |
| 2026-04-27 20:16 | 17.49108 | -93.17637 | 33839 ft | 455 kts | 310° |
| 2026-04-27 20:17 | 17.53107 | -93.22777 | 33837 ft | 455 kts | 310° |
| 2026-04-27 20:17 | 17.57102 | -93.27916 | 33827 ft | 455 kts | 310° |
| 2026-04-27 20:18 | 17.61097 | -93.33061 | 33832 ft | 455 kts | 310° |
| 2026-04-27 20:18 | 17.65094 | -93.38211 | 33826 ft | 455 kts | 310° |
| 2026-04-27 20:19 | 17.69062 | -93.43330 | 33825 ft | 456 kts | 310° |
| 2026-04-27 20:19 | 17.73061 | -93.48489 | 33826 ft | 456 kts | 310° |
| 2026-04-27 20:20 | 17.77054 | -93.53651 | 33824 ft | 455 kts | 310° |
| 2026-04-27 20:20 | 17.81047 | -93.58808 | 33822 ft | 455 kts | 310° |
| 2026-04-27 20:21 | 17.85033 | -93.63968 | 33826 ft | 455 kts | 310° |
| 2026-04-27 20:21 | 17.89022 | -93.69132 | 33833 ft | 455 kts | 310° |
| 2026-04-27 20:22 | 17.93012 | -93.74301 | 33827 ft | 456 kts | 310° |
| 2026-04-27 20:22 | 17.96999 | -93.79473 | 33832 ft | 456 kts | 310° |
| 2026-04-27 20:23 | 18.00987 | -93.84647 | 33838 ft | 455 kts | 310° |
| 2026-04-27 20:23 | 18.04969 | -93.89822 | 33833 ft | 456 kts | 310° |
| 2026-04-27 20:24 | 18.08955 | -93.95001 | 33840 ft | 456 kts | 310° |
| 2026-04-27 20:24 | 18.12937 | -94.00181 | 33843 ft | 455 kts | 310° |
| 2026-04-27 20:25 | 18.16914 | -94.05363 | 33846 ft | 455 kts | 309° |
| 2026-04-27 20:25 | 18.20893 | -94.10541 | 33841 ft | 455 kts | 310° |
| 2026-04-27 20:26 | 18.24857 | -94.15719 | 33843 ft | 454 kts | 309° |
| 2026-04-27 20:26 | 18.28828 | -94.20892 | 33850 ft | 454 kts | 309° |
| 2026-04-27 20:27 | 18.32784 | -94.26068 | 33854 ft | 454 kts | 310° |
| 2026-04-27 20:27 | 18.36746 | -94.31242 | 33850 ft | 454 kts | 309° |
| 2026-04-27 20:28 | 18.40698 | -94.36412 | 33848 ft | 453 kts | 310° |
| 2026-04-27 20:28 | 18.43982 | -94.40714 | 33852 ft | 453 kts | 309° |
| 2026-04-27 20:29 | 18.48575 | -94.46728 | 33852 ft | 453 kts | 309° |
| 2026-04-27 20:29 | 18.52518 | -94.51910 | 33847 ft | 453 kts | 309° |
| 2026-04-27 20:30 | 18.56466 | -94.57079 | 33849 ft | 453 kts | 309° |
| 2026-04-27 20:30 | 18.60396 | -94.62255 | 33846 ft | 452 kts | 309° |
| 2026-04-27 20:31 | 18.64337 | -94.67425 | 33847 ft | 452 kts | 309° |
| 2026-04-27 20:31 | 18.68267 | -94.72603 | 33849 ft | 452 kts | 309° |
| 2026-04-27 20:32 | 18.72197 | -94.77777 | 33849 ft | 452 kts | 309° |
| 2026-04-27 20:32 | 18.76126 | -94.82952 | 33842 ft | 452 kts | 309° |
| 2026-04-27 20:33 | 18.80050 | -94.88137 | 33841 ft | 452 kts | 309° |
| 2026-04-27 20:33 | 18.83983 | -94.93316 | 33842 ft | 452 kts | 309° |
| 2026-04-27 20:34 | 18.87903 | -94.98510 | 33839 ft | 452 kts | 309° |
| 2026-04-27 20:34 | 18.91807 | -95.03658 | 33841 ft | 452 kts | 309° |
| 2026-04-27 20:35 | 18.95724 | -95.08856 | 33834 ft | 452 kts | 309° |
| 2026-04-27 20:35 | 18.99652 | -95.14047 | 33836 ft | 452 kts | 309° |
| 2026-04-27 20:36 | 19.03565 | -95.19243 | 33836 ft | 452 kts | 309° |
| 2026-04-27 20:36 | 19.07480 | -95.24438 | 33833 ft | 451 kts | 309° |
| 2026-04-27 20:37 | 19.11392 | -95.29628 | 33834 ft | 451 kts | 309° |
| 2026-04-27 20:37 | 19.15293 | -95.34824 | 33833 ft | 451 kts | 308° |
| 2026-04-27 20:38 | 19.19205 | -95.40014 | 33831 ft | 451 kts | 309° |
| 2026-04-27 20:38 | 19.23099 | -95.45215 | 33833 ft | 451 kts | 309° |
| 2026-04-27 20:39 | 19.27009 | -95.50410 | 33834 ft | 451 kts | 308° |
| 2026-04-27 20:39 | 19.30907 | -95.55623 | 33829 ft | 451 kts | 309° |
| 2026-04-27 20:40 | 19.34813 | -95.60828 | 33832 ft | 452 kts | 308° |
| 2026-04-27 20:40 | 19.38715 | -95.66045 | 33834 ft | 452 kts | 309° |
| 2026-04-27 20:41 | 19.42618 | -95.71269 | 33828 ft | 452 kts | 308° |
| 2026-04-27 20:41 | 19.46502 | -95.76455 | 33829 ft | 452 kts | 308° |
| 2026-04-27 20:42 | 19.50398 | -95.81691 | 33829 ft | 452 kts | 308° |
| 2026-04-27 20:42 | 19.54314 | -95.86920 | 33831 ft | 453 kts | 308° |
| 2026-04-27 20:43 | 19.58212 | -95.92174 | 33828 ft | 453 kts | 308° |
| 2026-04-27 20:43 | 19.62126 | -95.97407 | 33831 ft | 453 kts | 308° |
| 2026-04-27 20:44 | 19.66018 | -96.02662 | 33830 ft | 453 kts | 308° |
| 2026-04-27 20:44 | 19.69928 | -96.07903 | 33824 ft | 453 kts | 308° |
| 2026-04-27 20:45 | 19.73815 | -96.13150 | 33827 ft | 452 kts | 308° |
| 2026-04-27 20:45 | 19.77707 | -96.18391 | 33820 ft | 452 kts | 308° |
| 2026-04-27 20:46 | 19.81594 | -96.23633 | 33822 ft | 452 kts | 308° |
| 2026-04-27 20:46 | 19.85475 | -96.28880 | 33821 ft | 451 kts | 308° |
| 2026-04-27 20:47 | 19.89359 | -96.34114 | 33823 ft | 451 kts | 308° |
| 2026-04-27 20:47 | 19.93221 | -96.39356 | 33826 ft | 450 kts | 308° |
| 2026-04-27 20:48 | 19.96442 | -96.43699 | 33827 ft | 450 kts | 308° |
| 2026-04-27 20:48 | 20.00948 | -96.49821 | 33826 ft | 449 kts | 308° |
| 2026-04-27 20:49 | 20.04811 | -96.55044 | 33820 ft | 449 kts | 308° |
| 2026-04-27 20:49 | 20.08628 | -96.60236 | 33824 ft | 449 kts | 308° |
| 2026-04-27 20:50 | 20.12477 | -96.65460 | 33820 ft | 448 kts | 307° |
| 2026-04-27 20:50 | 20.16315 | -96.70678 | 33819 ft | 448 kts | 308° |
| 2026-04-27 20:51 | 20.20230 | -96.75827 | 33811 ft | 447 kts | 311° |
| 2026-04-27 20:51 | 20.24523 | -96.80627 | 33813 ft | 448 kts | 311° |
| 2026-04-27 20:52 | 20.28026 | -96.84750 | 33814 ft | 448 kts | 311° |
| 2026-04-27 20:52 | 20.32284 | -96.89532 | 33816 ft | 448 kts | 312° |
| 2026-04-27 20:53 | 20.36486 | -96.94437 | 33811 ft | 448 kts | 311° |
| 2026-04-27 20:53 | 20.40762 | -96.99269 | 33814 ft | 448 kts | 311° |
| 2026-04-27 20:54 | 20.47108 | -97.06592 | 33811 ft | 448 kts | 312° |
| 2026-04-27 20:55 | 20.51344 | -97.11480 | 33809 ft | 449 kts | 311° |
| 2026-04-27 20:55 | 20.55597 | -97.16356 | 33816 ft | 449 kts | 311° |
| 2026-04-27 20:56 | 20.59828 | -97.21258 | 33819 ft | 449 kts | 311° |
| 2026-04-27 20:56 | 20.64086 | -97.26140 | 33826 ft | 449 kts | 311° |
| 2026-04-27 20:57 | 20.68315 | -97.31051 | 33831 ft | 449 kts | 311° |
| 2026-04-27 20:57 | 20.72567 | -97.35935 | 33827 ft | 449 kts | 311° |
| 2026-04-27 20:58 | 20.76788 | -97.40845 | 33828 ft | 448 kts | 311° |
| 2026-04-27 20:58 | 20.81032 | -97.45733 | 33821 ft | 449 kts | 311° |
| 2026-04-27 20:59 | 20.85255 | -97.50645 | 33815 ft | 449 kts | 311° |
| 2026-04-27 20:59 | 20.89492 | -97.55544 | 33803 ft | 449 kts | 311° |
| 2026-04-27 21:00 | 20.93714 | -97.60453 | 33792 ft | 448 kts | 311° |
| 2026-04-27 21:00 | 20.97942 | -97.65360 | 33788 ft | 449 kts | 310° |
| 2026-04-27 21:01 | 21.02168 | -97.70274 | 33786 ft | 449 kts | 311° |
| 2026-04-27 21:01 | 21.06394 | -97.75197 | 33782 ft | 449 kts | 310° |
| 2026-04-27 21:02 | 21.10628 | -97.80119 | 33780 ft | 450 kts | 311° |
| 2026-04-27 21:02 | 21.14830 | -97.85030 | 33784 ft | 450 kts | 310° |
| 2026-04-27 21:03 | 21.19097 | -97.89999 | 33781 ft | 450 kts | 310° |
| 2026-04-27 21:03 | 21.23333 | -97.94957 | 33771 ft | 450 kts | 310° |
| 2026-04-27 21:04 | 21.27566 | -97.99896 | 33772 ft | 449 kts | 310° |
| 2026-04-27 21:04 | 21.31757 | -98.04807 | 33769 ft | 450 kts | 310° |
| 2026-04-27 21:05 | 21.35986 | -98.09754 | 33762 ft | 449 kts | 310° |
| 2026-04-27 21:05 | 21.40201 | -98.14702 | 33764 ft | 449 kts | 310° |
| 2026-04-27 21:06 | 21.44426 | -98.19651 | 33752 ft | 450 kts | 310° |
| 2026-04-27 21:06 | 21.48644 | -98.24614 | 33751 ft | 450 kts | 310° |
| 2026-04-27 21:07 | 21.52868 | -98.29573 | 33750 ft | 450 kts | 310° |
| 2026-04-27 21:07 | 21.57085 | -98.34539 | 33747 ft | 450 kts | 310° |
| 2026-04-27 21:08 | 21.61306 | -98.39507 | 33746 ft | 450 kts | 310° |
| 2026-04-27 21:08 | 21.65519 | -98.44474 | 33747 ft | 450 kts | 310° |
| 2026-04-27 21:09 | 21.69735 | -98.49449 | 33743 ft | 450 kts | 310° |
| 2026-04-27 21:09 | 21.73946 | -98.54424 | 33740 ft | 450 kts | 310° |
| 2026-04-27 21:10 | 21.78156 | -98.59398 | 33744 ft | 449 kts | 310° |
| 2026-04-27 21:10 | 21.82357 | -98.64372 | 33744 ft | 449 kts | 310° |
| 2026-04-27 21:11 | 21.86558 | -98.69346 | 33741 ft | 449 kts | 310° |
| 2026-04-27 21:11 | 21.90760 | -98.74328 | 33744 ft | 449 kts | 310° |
| 2026-04-27 21:12 | 21.94933 | -98.79278 | 33741 ft | 449 kts | 310° |
| 2026-04-27 21:12 | 21.99127 | -98.84262 | 33746 ft | 449 kts | 309° |
| 2026-04-27 21:13 | 22.03322 | -98.89245 | 33738 ft | 449 kts | 309° |
| 2026-04-27 21:13 | 22.07512 | -98.94238 | 33747 ft | 450 kts | 309° |
| 2026-04-27 21:14 | 22.11715 | -98.99236 | 33751 ft | 450 kts | 309° |
| 2026-04-27 21:14 | 22.15912 | -99.04248 | 33752 ft | 450 kts | 309° |
| 2026-04-27 21:15 | 22.20117 | -99.09260 | 33760 ft | 451 kts | 309° |
| 2026-04-27 21:15 | 22.24319 | -99.14282 | 33768 ft | 450 kts | 309° |
| 2026-04-27 21:16 | 22.28515 | -99.19301 | 33780 ft | 450 kts | 309° |
| 2026-04-27 21:16 | 22.32715 | -99.24324 | 33784 ft | 451 kts | 309° |
| 2026-04-27 21:17 | 22.36906 | -99.29350 | 33794 ft | 450 kts | 309° |
| 2026-04-27 21:17 | 22.41098 | -99.34370 | 33805 ft | 450 kts | 309° |
| 2026-04-27 21:18 | 22.45284 | -99.39402 | 33808 ft | 450 kts | 309° |
| 2026-04-27 21:18 | 22.49475 | -99.44436 | 33804 ft | 450 kts | 309° |
| 2026-04-27 21:19 | 22.53664 | -99.49474 | 33800 ft | 450 kts | 309° |
| 2026-04-27 21:19 | 22.57852 | -99.54520 | 33809 ft | 451 kts | 309° |
| 2026-04-27 21:20 | 22.64139 | -99.62104 | 33808 ft | 451 kts | 309° |
| 2026-04-27 21:20 | 22.68337 | -99.67162 | 33810 ft | 452 kts | 309° |
| 2026-04-27 21:21 | 22.72527 | -99.72235 | 33799 ft | 452 kts | 309° |
| 2026-04-27 21:21 | 22.76725 | -99.77305 | 33808 ft | 452 kts | 309° |
| 2026-04-27 21:22 | 22.80912 | -99.82382 | 33798 ft | 452 kts | 309° |
| 2026-04-27 21:22 | 22.85108 | -99.87463 | 33797 ft | 453 kts | 309° |
| 2026-04-27 21:23 | 22.89273 | -99.92522 | 33793 ft | 453 kts | 309° |
| 2026-04-27 21:23 | 22.93472 | -99.97616 | 33787 ft | 453 kts | 308° |
| 2026-04-27 21:24 | 22.97669 | -100.02720 | 33793 ft | 454 kts | 309° |
| 2026-04-27 21:24 | 23.01871 | -100.07838 | 33789 ft | 454 kts | 308° |
| 2026-04-27 21:25 | 23.06074 | -100.12949 | 33784 ft | 453 kts | 308° |
| 2026-04-27 21:25 | 23.10255 | -100.18059 | 33790 ft | 453 kts | 308° |
| 2026-04-27 21:26 | 23.14453 | -100.23172 | 33788 ft | 453 kts | 308° |
| 2026-04-27 21:26 | 23.18640 | -100.28299 | 33782 ft | 453 kts | 308° |
| 2026-04-27 21:27 | 23.22834 | -100.33418 | 33786 ft | 454 kts | 308° |
| 2026-04-27 21:27 | 23.27021 | -100.38556 | 33781 ft | 453 kts | 308° |
| 2026-04-27 21:28 | 23.31210 | -100.43680 | 33795 ft | 453 kts | 308° |
| 2026-04-27 21:28 | 23.35392 | -100.48820 | 33795 ft | 454 kts | 308° |
| 2026-04-27 21:29 | 23.39580 | -100.53955 | 33795 ft | 453 kts | 308° |
| 2026-04-27 21:29 | 23.43750 | -100.59091 | 33805 ft | 452 kts | 308° |
| 2026-04-27 21:30 | 23.47922 | -100.64218 | 33812 ft | 452 kts | 308° |
| 2026-04-27 21:30 | 23.52083 | -100.69348 | 33819 ft | 452 kts | 308° |
| 2026-04-27 21:31 | 23.56215 | -100.74447 | 33818 ft | 451 kts | 308° |
| 2026-04-27 21:31 | 23.60369 | -100.79567 | 33825 ft | 450 kts | 308° |
| 2026-04-27 21:32 | 23.64505 | -100.84688 | 33830 ft | 449 kts | 308° |
| 2026-04-27 21:32 | 23.68637 | -100.89798 | 33828 ft | 449 kts | 308° |
| 2026-04-27 21:33 | 23.72768 | -100.94908 | 33834 ft | 449 kts | 308° |
| 2026-04-27 21:33 | 23.76883 | -101.00018 | 33836 ft | 447 kts | 308° |
| 2026-04-27 21:34 | 23.80991 | -101.05108 | 33835 ft | 446 kts | 308° |
| 2026-04-27 21:34 | 23.85083 | -101.10199 | 33840 ft | 446 kts | 308° |
| 2026-04-27 21:35 | 23.89179 | -101.15290 | 33837 ft | 446 kts | 308° |
| 2026-04-27 21:35 | 23.93269 | -101.20382 | 33835 ft | 445 kts | 308° |
| 2026-04-27 21:36 | 23.97352 | -101.25472 | 33841 ft | 445 kts | 307° |
| 2026-04-27 21:36 | 24.01439 | -101.30568 | 33838 ft | 446 kts | 307° |
| 2026-04-27 21:37 | 24.05520 | -101.35669 | 33836 ft | 445 kts | 307° |
| 2026-04-27 21:37 | 24.09601 | -101.40763 | 33839 ft | 445 kts | 307° |
| 2026-04-27 21:38 | 24.13668 | -101.45862 | 33840 ft | 444 kts | 307° |
| 2026-04-27 21:38 | 24.17572 | -101.51017 | 33836 ft | 441 kts | 303° |
| 2026-04-27 21:39 | 24.21249 | -101.56398 | 33832 ft | 441 kts | 304° |
| 2026-04-27 21:39 | 24.24984 | -101.61725 | 33832 ft | 440 kts | 302° |
| 2026-04-27 21:40 | 24.28647 | -101.67079 | 33830 ft | 440 kts | 303° |
| 2026-04-27 21:40 | 24.31770 | -101.71546 | 33833 ft | 440 kts | 302° |
| 2026-04-27 21:41 | 24.35436 | -101.76913 | 33828 ft | 440 kts | 303° |
| 2026-04-27 21:41 | 24.39113 | -101.82208 | 33830 ft | 439 kts | 302° |
| 2026-04-27 21:42 | 24.42780 | -101.87563 | 33819 ft | 439 kts | 303° |
| 2026-04-27 21:42 | 24.46464 | -101.92905 | 33818 ft | 438 kts | 302° |
| 2026-04-27 21:43 | 24.50138 | -101.98257 | 33817 ft | 439 kts | 303° |
| 2026-04-27 21:43 | 24.53811 | -102.03615 | 33814 ft | 439 kts | 302° |
| 2026-04-27 21:44 | 24.57494 | -102.08981 | 33811 ft | 440 kts | 303° |
| 2026-04-27 21:44 | 24.61168 | -102.14356 | 33815 ft | 440 kts | 302° |
| 2026-04-27 21:45 | 24.64846 | -102.19726 | 33825 ft | 440 kts | 303° |
| 2026-04-27 21:45 | 24.68520 | -102.25111 | 33803 ft | 439 kts | 302° |
| 2026-04-27 21:46 | 24.72188 | -102.30478 | 33800 ft | 439 kts | 303° |
| 2026-04-27 21:46 | 24.75840 | -102.35849 | 33799 ft | 438 kts | 303° |
| 2026-04-27 21:47 | 24.79503 | -102.41211 | 33792 ft | 438 kts | 303° |
| 2026-04-27 21:47 | 24.83150 | -102.46593 | 33792 ft | 439 kts | 303° |
| 2026-04-27 21:48 | 24.86789 | -102.51931 | 33794 ft | 438 kts | 303° |
| 2026-04-27 21:48 | 24.90429 | -102.57312 | 33786 ft | 439 kts | 303° |
| 2026-04-27 21:49 | 24.94084 | -102.62692 | 33781 ft | 438 kts | 303° |
| 2026-04-27 21:49 | 24.97731 | -102.68083 | 33779 ft | 439 kts | 303° |
| 2026-04-27 21:50 | 25.01373 | -102.73470 | 33781 ft | 438 kts | 303° |
| 2026-04-27 21:50 | 25.05014 | -102.78853 | 33782 ft | 438 kts | 303° |
| 2026-04-27 21:51 | 25.08641 | -102.84241 | 33788 ft | 437 kts | 303° |
| 2026-04-27 21:51 | 25.12279 | -102.89620 | 33783 ft | 437 kts | 303° |
| 2026-04-27 21:52 | 25.15896 | -102.95011 | 33778 ft | 437 kts | 303° |
| 2026-04-27 21:52 | 25.19525 | -103.00393 | 33786 ft | 436 kts | 303° |
| 2026-04-27 21:53 | 25.23135 | -103.05778 | 33779 ft | 436 kts | 303° |
| 2026-04-27 21:53 | 25.26747 | -103.11153 | 33782 ft | 435 kts | 303° |
| 2026-04-27 21:54 | 25.30347 | -103.16529 | 33792 ft | 435 kts | 303° |
| 2026-04-27 21:54 | 25.33945 | -103.21902 | 33825 ft | 435 kts | 303° |
| 2026-04-27 21:55 | 25.37514 | -103.27237 | 33873 ft | 434 kts | 303° |
| 2026-04-27 21:55 | 25.41096 | -103.32606 | 33921 ft | 433 kts | 302° |
| 2026-04-27 21:56 | 25.46463 | -103.40648 | 33983 ft | 433 kts | 302° |
| 2026-04-27 21:57 | 25.50033 | -103.46010 | 33988 ft | 433 kts | 303° |
| 2026-04-27 21:57 | 25.53603 | -103.51375 | 33983 ft | 432 kts | 302° |
| 2026-04-27 21:58 | 25.57164 | -103.56732 | 33949 ft | 432 kts | 303° |
| 2026-04-27 21:58 | 25.60720 | -103.62093 | 33909 ft | 433 kts | 303° |
| 2026-04-27 21:59 | 25.64285 | -103.67469 | 33859 ft | 433 kts | 302° |
| 2026-04-27 21:59 | 25.67853 | -103.72855 | 33824 ft | 434 kts | 303° |
| 2026-04-27 22:00 | 25.71422 | -103.78251 | 33784 ft | 435 kts | 303° |
| 2026-04-27 22:00 | 25.74985 | -103.83645 | 33796 ft | 431 kts | 302° |
| 2026-04-27 22:01 | 25.78527 | -103.89008 | 33789 ft | 430 kts | 302° |
| 2026-04-27 22:01 | 25.82027 | -103.94321 | 33790 ft | 429 kts | 302° |
| 2026-04-27 22:02 | 25.85545 | -103.99663 | 33792 ft | 428 kts | 302° |
| 2026-04-27 22:02 | 25.89057 | -104.05002 | 33799 ft | 428 kts | 302° |
| 2026-04-27 22:03 | 25.92561 | -104.10341 | 33791 ft | 428 kts | 302° |
| 2026-04-27 22:03 | 25.96067 | -104.15676 | 33795 ft | 427 kts | 302° |
| 2026-04-27 22:04 | 25.99557 | -104.21010 | 33793 ft | 426 kts | 302° |
| 2026-04-27 22:04 | 26.03049 | -104.26335 | 33790 ft | 426 kts | 302° |
| 2026-04-27 22:05 | 26.06529 | -104.31665 | 33784 ft | 426 kts | 302° |
| 2026-04-27 22:05 | 26.10017 | -104.36996 | 33786 ft | 426 kts | 302° |
| 2026-04-27 22:06 | 26.13494 | -104.42333 | 33776 ft | 426 kts | 302° |
| 2026-04-27 22:06 | 26.16964 | -104.47656 | 33783 ft | 425 kts | 301° |
| 2026-04-27 22:07 | 26.20427 | -104.52974 | 33779 ft | 423 kts | 301° |
| 2026-04-27 22:07 | 26.23870 | -104.58276 | 33778 ft | 422 kts | 301° |
| 2026-04-27 22:08 | 26.27316 | -104.63574 | 33783 ft | 423 kts | 301° |
| 2026-04-27 22:08 | 26.30755 | -104.68885 | 33780 ft | 422 kts | 301° |
| 2026-04-27 22:09 | 26.34198 | -104.74193 | 33767 ft | 422 kts | 301° |
| 2026-04-27 22:09 | 26.37634 | -104.79504 | 33792 ft | 422 kts | 301° |
| 2026-04-27 22:10 | 26.41043 | -104.84783 | 33777 ft | 422 kts | 301° |
| 2026-04-27 22:10 | 26.44482 | -104.90100 | 33777 ft | 422 kts | 301° |
| 2026-04-27 22:11 | 26.47905 | -104.95421 | 33756 ft | 422 kts | 301° |
| 2026-04-27 22:11 | 26.51333 | -105.00730 | 33760 ft | 421 kts | 301° |
| 2026-04-27 22:12 | 26.54744 | -105.06043 | 33759 ft | 421 kts | 301° |
| 2026-04-27 22:12 | 26.58158 | -105.11348 | 33762 ft | 420 kts | 300° |
| 2026-04-27 22:13 | 26.61561 | -105.16652 | 33762 ft | 420 kts | 301° |
| 2026-04-27 22:13 | 26.64958 | -105.21957 | 33766 ft | 420 kts | 300° |
| 2026-04-27 22:14 | 26.68362 | -105.27261 | 33770 ft | 419 kts | 300° |
| 2026-04-27 22:14 | 26.71748 | -105.32570 | 33760 ft | 419 kts | 300° |
| 2026-04-27 22:15 | 26.75144 | -105.37871 | 33774 ft | 419 kts | 300° |
| 2026-04-27 22:15 | 26.78526 | -105.43182 | 33776 ft | 419 kts | 300° |
| 2026-04-27 22:16 | 26.81915 | -105.48494 | 33780 ft | 419 kts | 300° |
| 2026-04-27 22:16 | 26.85299 | -105.53810 | 33786 ft | 419 kts | 300° |
| 2026-04-27 22:17 | 26.88677 | -105.59128 | 33791 ft | 419 kts | 300° |
| 2026-04-27 22:17 | 26.92058 | -105.64447 | 33795 ft | 419 kts | 300° |
| 2026-04-27 22:18 | 26.95438 | -105.69779 | 33797 ft | 420 kts | 300° |
| 2026-04-27 22:18 | 26.98822 | -105.75118 | 33797 ft | 421 kts | 300° |
| 2026-04-27 22:19 | 27.02217 | -105.80487 | 33801 ft | 422 kts | 300° |
| 2026-04-27 22:19 | 27.05587 | -105.85813 | 33797 ft | 423 kts | 300° |
| 2026-04-27 22:20 | 27.08988 | -105.91196 | 33803 ft | 422 kts | 299° |
| 2026-04-27 22:20 | 27.12367 | -105.96569 | 33800 ft | 421 kts | 299° |
| 2026-04-27 22:21 | 27.15757 | -106.01940 | 33799 ft | 421 kts | 299° |
| 2026-04-27 22:21 | 27.19133 | -106.07315 | 33801 ft | 421 kts | 299° |
| 2026-04-27 22:22 | 27.22514 | -106.12691 | 33797 ft | 421 kts | 299° |
| 2026-04-27 22:22 | 27.25887 | -106.18072 | 33806 ft | 421 kts | 299° |
| 2026-04-27 22:23 | 27.29265 | -106.23458 | 33806 ft | 421 kts | 299° |
| 2026-04-27 22:23 | 27.32636 | -106.28846 | 33819 ft | 421 kts | 299° |
| 2026-04-27 22:24 | 27.36006 | -106.34236 | 33824 ft | 421 kts | 299° |
| 2026-04-27 22:24 | 27.39374 | -106.39626 | 33835 ft | 421 kts | 299° |
| 2026-04-27 22:25 | 27.42737 | -106.45026 | 33839 ft | 421 kts | 299° |
| 2026-04-27 22:25 | 27.46106 | -106.50428 | 33844 ft | 422 kts | 298° |
| 2026-04-27 22:26 | 27.49471 | -106.55842 | 33860 ft | 422 kts | 298° |
| 2026-04-27 22:26 | 27.52833 | -106.61250 | 33862 ft | 421 kts | 298° |
| 2026-04-27 22:27 | 27.56185 | -106.66650 | 33873 ft | 420 kts | 298° |
| 2026-04-27 22:27 | 27.59530 | -106.72048 | 33880 ft | 419 kts | 298° |
| 2026-04-27 22:28 | 27.62867 | -106.77440 | 33886 ft | 419 kts | 298° |
| 2026-04-27 22:28 | 27.66178 | -106.82794 | 33897 ft | 419 kts | 298° |
| 2026-04-27 22:29 | 27.69514 | -106.88195 | 33877 ft | 418 kts | 298° |
| 2026-04-27 22:29 | 27.72845 | -106.93593 | 33894 ft | 421 kts | 298° |
| 2026-04-27 22:30 | 27.76173 | -106.99003 | 33902 ft | 419 kts | 298° |
| 2026-04-27 22:30 | 27.78962 | -107.03529 | 33922 ft | 419 kts | 298° |
| 2026-04-27 22:31 | 27.82257 | -107.08897 | 33930 ft | 418 kts | 298° |
| 2026-04-27 22:31 | 27.85574 | -107.14297 | 33945 ft | 418 kts | 298° |
| 2026-04-27 22:32 | 27.88888 | -107.19704 | 33952 ft | 419 kts | 298° |
| 2026-04-27 22:32 | 27.92199 | -107.25110 | 33958 ft | 418 kts | 298° |
| 2026-04-27 22:33 | 27.95507 | -107.30521 | 33969 ft | 418 kts | 297° |
| 2026-04-27 22:33 | 27.98817 | -107.35937 | 33972 ft | 419 kts | 297° |
| 2026-04-27 22:34 | 28.02117 | -107.41352 | 33973 ft | 418 kts | 297° |
| 2026-04-27 22:34 | 28.05417 | -107.46763 | 33977 ft | 417 kts | 297° |
| 2026-04-27 22:35 | 28.08718 | -107.52195 | 33984 ft | 420 kts | 297° |
| 2026-04-27 22:35 | 28.12023 | -107.57622 | 33991 ft | 417 kts | 297° |
| 2026-04-27 22:36 | 28.15305 | -107.63041 | 33991 ft | 417 kts | 297° |
| 2026-04-27 22:36 | 28.18588 | -107.68452 | 33994 ft | 417 kts | 297° |
| 2026-04-27 22:37 | 28.21868 | -107.73874 | 33994 ft | 417 kts | 297° |
| 2026-04-27 22:37 | 28.25141 | -107.79297 | 34002 ft | 417 kts | 297° |
| 2026-04-27 22:38 | 28.28394 | -107.84675 | 33989 ft | 416 kts | 296° |
| 2026-04-27 22:38 | 28.31649 | -107.90082 | 33996 ft | 415 kts | 296° |
| 2026-04-27 22:39 | 28.34904 | -107.95481 | 34000 ft | 417 kts | 296° |
| 2026-04-27 22:39 | 28.38162 | -108.00905 | 33994 ft | 415 kts | 296° |
| 2026-04-27 22:40 | 28.41412 | -108.06313 | 33995 ft | 416 kts | 296° |
| 2026-04-27 22:40 | 28.44665 | -108.11741 | 33987 ft | 416 kts | 296° |
| 2026-04-27 22:41 | 28.47920 | -108.17172 | 33988 ft | 416 kts | 296° |
| 2026-04-27 22:41 | 28.51169 | -108.22602 | 33980 ft | 415 kts | 296° |
| 2026-04-27 22:42 | 28.54414 | -108.28033 | 33973 ft | 416 kts | 296° |
| 2026-04-27 22:42 | 28.57657 | -108.33470 | 33969 ft | 416 kts | 296° |
| 2026-04-27 22:43 | 28.60902 | -108.38915 | 33972 ft | 415 kts | 296° |
| 2026-04-27 22:43 | 28.64142 | -108.44357 | 33900 ft | 414 kts | 295° |
| 2026-04-27 22:44 | 28.67357 | -108.49768 | 33956 ft | 413 kts | 295° |
| 2026-04-27 22:44 | 28.70569 | -108.55195 | 33954 ft | 413 kts | 295° |
| 2026-04-27 22:45 | 28.73770 | -108.60612 | 33946 ft | 412 kts | 295° |
| 2026-04-27 22:45 | 28.76967 | -108.66030 | 33939 ft | 411 kts | 295° |
| 2026-04-27 22:46 | 28.80150 | -108.71433 | 33927 ft | 411 kts | 295° |
| 2026-04-27 22:46 | 28.83327 | -108.76829 | 33926 ft | 411 kts | 295° |
| 2026-04-27 22:47 | 28.86503 | -108.82230 | 33930 ft | 410 kts | 295° |
| 2026-04-27 22:47 | 28.89654 | -108.87601 | 33918 ft | 409 kts | 295° |
| 2026-04-27 22:48 | 28.92822 | -108.93003 | 33907 ft | 409 kts | 295° |
| 2026-04-27 22:48 | 28.95982 | -108.98398 | 33907 ft | 409 kts | 295° |
| 2026-04-27 22:49 | 28.99147 | -109.03815 | 33899 ft | 410 kts | 295° |
| 2026-04-27 22:49 | 29.02312 | -109.09227 | 33896 ft | 410 kts | 295° |
| 2026-04-27 22:50 | 29.05472 | -109.14650 | 33888 ft | 409 kts | 295° |
| 2026-04-27 22:50 | 29.08628 | -109.20065 | 33885 ft | 409 kts | 295° |
| 2026-04-27 22:51 | 29.11778 | -109.25484 | 33875 ft | 410 kts | 295° |
| 2026-04-27 22:51 | 29.14930 | -109.30902 | 33879 ft | 408 kts | 295° |
| 2026-04-27 22:52 | 29.18068 | -109.36319 | 33875 ft | 410 kts | 294° |
| 2026-04-27 22:52 | 29.21214 | -109.41739 | 33865 ft | 408 kts | 294° |
| 2026-04-27 22:53 | 29.24351 | -109.47171 | 33870 ft | 410 kts | 294° |
| 2026-04-27 22:53 | 29.27502 | -109.52612 | 33876 ft | 410 kts | 294° |
| 2026-04-27 22:54 | 29.30639 | -109.58053 | 33870 ft | 409 kts | 294° |
| 2026-04-27 22:54 | 29.33771 | -109.63481 | 33871 ft | 408 kts | 294° |
| 2026-04-27 22:55 | 29.36886 | -109.68895 | 33870 ft | 407 kts | 294° |
| 2026-04-27 22:55 | 29.39998 | -109.74309 | 33870 ft | 407 kts | 294° |
| 2026-04-27 22:56 | 29.43108 | -109.79720 | 33884 ft | 406 kts | 294° |
| 2026-04-27 22:56 | 29.46229 | -109.85187 | 33870 ft | 417 kts | 294° |
| 2026-04-27 22:57 | 29.49418 | -109.90716 | 33888 ft | 416 kts | 295° |
| 2026-04-27 22:57 | 29.52579 | -109.96274 | 33888 ft | 415 kts | 294° |
| 2026-04-27 22:58 | 29.55758 | -110.01821 | 33893 ft | 416 kts | 294° |
| 2026-04-27 22:58 | 29.58900 | -110.07344 | 33888 ft | 416 kts | 294° |
| 2026-04-27 22:59 | 29.62073 | -110.12902 | 33878 ft | 416 kts | 294° |
| 2026-04-27 22:59 | 29.65228 | -110.18462 | 33886 ft | 415 kts | 294° |
| 2026-04-27 23:00 | 29.69969 | -110.26808 | 33893 ft | 415 kts | 294° |
| 2026-04-27 23:00 | 29.73126 | -110.32374 | 33895 ft | 416 kts | 294° |
| 2026-04-27 23:01 | 29.76281 | -110.37947 | 33897 ft | 416 kts | 294° |
| 2026-04-27 23:01 | 29.79432 | -110.43523 | 33901 ft | 415 kts | 294° |
| 2026-04-27 23:02 | 29.82576 | -110.49092 | 33897 ft | 415 kts | 294° |
| 2026-04-27 23:02 | 29.85716 | -110.54661 | 33907 ft | 414 kts | 294° |
| 2026-04-27 23:03 | 29.88854 | -110.60233 | 33897 ft | 415 kts | 294° |
| 2026-04-27 23:03 | 29.91986 | -110.65809 | 33904 ft | 415 kts | 294° |
| 2026-04-27 23:04 | 29.95126 | -110.71397 | 33900 ft | 416 kts | 294° |
| 2026-04-27 23:04 | 29.98257 | -110.76986 | 33892 ft | 415 kts | 294° |
| 2026-04-27 23:05 | 30.01392 | -110.82581 | 33897 ft | 414 kts | 294° |
| 2026-04-27 23:05 | 30.04515 | -110.88171 | 33894 ft | 414 kts | 294° |
| 2026-04-27 23:06 | 30.07636 | -110.93757 | 33889 ft | 414 kts | 294° |
| 2026-04-27 23:06 | 30.10752 | -110.99348 | 33886 ft | 414 kts | 294° |
| 2026-04-27 23:07 | 30.13873 | -111.04930 | 33884 ft | 415 kts | 294° |
| 2026-04-27 23:07 | 30.17015 | -111.10510 | 33890 ft | 413 kts | 294° |
| 2026-04-27 23:08 | 30.20132 | -111.16094 | 33887 ft | 413 kts | 294° |
| 2026-04-27 23:08 | 30.23255 | -111.21669 | 33891 ft | 413 kts | 294° |
| 2026-04-27 23:09 | 30.26345 | -111.27207 | 33889 ft | 413 kts | 294° |
| 2026-04-27 23:09 | 30.29453 | -111.32784 | 33889 ft | 412 kts | 294° |
| 2026-04-27 23:10 | 30.32562 | -111.38367 | 33893 ft | 413 kts | 294° |
| 2026-04-27 23:10 | 30.35664 | -111.43941 | 33895 ft | 411 kts | 294° |
| 2026-04-27 23:11 | 30.38750 | -111.49503 | 33901 ft | 411 kts | 294° |
| 2026-04-27 23:11 | 30.41838 | -111.55070 | 33889 ft | 411 kts | 293° |
| 2026-04-27 23:12 | 30.44921 | -111.60638 | 33898 ft | 411 kts | 293° |
| 2026-04-27 23:12 | 30.48001 | -111.66211 | 33896 ft | 411 kts | 293° |
| 2026-04-27 23:13 | 30.51081 | -111.71785 | 33908 ft | 410 kts | 293° |
| 2026-04-27 23:13 | 30.54155 | -111.77364 | 33903 ft | 410 kts | 293° |
| 2026-04-27 23:14 | 30.57226 | -111.82941 | 33907 ft | 410 kts | 293° |
| 2026-04-27 23:14 | 30.60296 | -111.88521 | 33910 ft | 410 kts | 293° |
| 2026-04-27 23:15 | 30.63355 | -111.94099 | 33914 ft | 409 kts | 293° |
| 2026-04-27 23:15 | 30.66417 | -111.99673 | 33916 ft | 409 kts | 293° |
| 2026-04-27 23:16 | 30.69465 | -112.05247 | 33915 ft | 407 kts | 293° |
| 2026-04-27 23:16 | 30.72510 | -112.10817 | 33926 ft | 409 kts | 293° |
| 2026-04-27 23:17 | 30.75041 | -112.15452 | 33917 ft | 409 kts | 293° |
| 2026-04-27 23:17 | 30.78085 | -112.21032 | 33918 ft | 408 kts | 293° |
| 2026-04-27 23:18 | 30.81121 | -112.26609 | 33927 ft | 408 kts | 293° |
| 2026-04-27 23:18 | 30.84156 | -112.32189 | 33925 ft | 408 kts | 293° |
| 2026-04-27 23:19 | 30.87187 | -112.37770 | 33929 ft | 408 kts | 293° |
| 2026-04-27 23:19 | 30.90212 | -112.43351 | 33939 ft | 407 kts | 292° |
| 2026-04-27 23:20 | 30.93232 | -112.48928 | 33930 ft | 407 kts | 292° |
| 2026-04-27 23:20 | 30.96251 | -112.54510 | 33932 ft | 407 kts | 292° |
| 2026-04-27 23:21 | 30.99263 | -112.60090 | 33939 ft | 407 kts | 292° |
| 2026-04-27 23:21 | 31.02273 | -112.65672 | 33935 ft | 407 kts | 292° |
| 2026-04-27 23:22 | 31.05278 | -112.71255 | 33942 ft | 406 kts | 292° |
| 2026-04-27 23:22 | 31.08278 | -112.76835 | 33950 ft | 406 kts | 292° |
| 2026-04-27 23:23 | 31.11274 | -112.82416 | 33952 ft | 406 kts | 292° |
| 2026-04-27 23:23 | 31.14269 | -112.88000 | 33954 ft | 406 kts | 292° |
| 2026-04-27 23:24 | 31.17258 | -112.93587 | 33952 ft | 406 kts | 292° |